Airfield :
LOGIN :

Register | Disclaimer

   EN    FR    IT 

 










Legend :    VFR   Marginal VFR   IFR   Intensive IFR   Very Intensive IFR
Visi :
Ceiling :
>= 8 km
>= 3000ft
5 to 8 km
1000 to 3000 ft
1500m to 5 km
500 to 1000 ft
800 to 1500m
200 to 500 ft
< 800m
< 200 ft
Symbols :   Thunderstorms  Fog  Heavy snow  Heavy precipitations  Wind > 20 kt
SIGMETs :     Misc.  Thunderstorms  Icing  Turbulence  Mountain Waves  Volcanic Ashes






- Airport Elevation : 1470 ft


LSMD - Dubendorf Military

CURRENT METAR :
  • 280720Z 14011KT 6000 RA FEW026 SCT040 OVC045 02/01 Q1010 RMK WHT

EXPIRED METARs :
  • 280650Z 15008KT 9999 -RA FEW024 BKN027 OVC039 02/01 Q1011 RMK BLU
  • 280620Z 14007KT 9999 -RA SCT029 OVC034 02/01 Q1011 RMK BLU
  • 280550Z 14008KT 8000 RA SCT013 OVC029 02/01 Q1012 RMK BLU
  • 280520Z AUTO 14008KT 6000NDV -RA SCT012 BKN023 OVC030 01/01 Q1012 RMK
  • 280450Z AUTO 13007KT 6000NDV -RA SCT011 BKN014 OVC029 01/01 Q1013 RMK

Expired Forecast.



MET'MAP, your aeronautical weather chart ! - Copyright ORBIFLY December 2007 - Disclaimer

ORBIFLY MET'MAP TEAM :

Programming & Development : Alexandra Zaïnal
Concept & original design : Baudouin d'Aumeries
Assistance for programming : Marc-Olivier Méhu
Technical & hardware support : Manuel Goepfert

Contact : metmap@orbifly.com




SOURCES & CREDITS :

   NOAA